createdAt,value
2023-02-18T00:01:53.251Z,14.1
2023-02-18T00:06:53.239Z,14
2023-02-18T00:11:53.218Z,13.9
2023-02-18T00:16:53.240Z,13.9
2023-02-18T00:21:53.264Z,13.8
2023-02-18T00:26:53.317Z,13.8
2023-02-18T00:31:53.392Z,13.8
2023-02-18T00:36:53.225Z,13.7
2023-02-18T00:41:53.270Z,13.7
2023-02-18T00:46:53.245Z,13.6
2023-02-18T00:51:53.245Z,13.5
2023-02-18T00:56:53.227Z,13.5
2023-02-18T01:01:53.338Z,13.4
2023-02-18T01:06:53.246Z,13.4
2023-02-18T01:11:53.277Z,13.3
2023-02-18T01:16:53.226Z,13.3
2023-02-18T01:21:53.286Z,13.3
2023-02-18T01:26:53.272Z,13.3
2023-02-18T01:31:53.375Z,13.3
2023-02-18T01:36:53.246Z,13.2
2023-02-18T01:41:53.286Z,13.2
2023-02-18T01:46:53.331Z,13.1
2023-02-18T01:51:53.267Z,13.1
2023-02-18T01:56:53.237Z,13.1
2023-02-18T02:01:53.301Z,13
2023-02-18T02:06:53.269Z,13
2023-02-18T02:11:53.289Z,12.9
2023-02-18T02:16:53.292Z,12.9
2023-02-18T02:21:53.282Z,12.8
2023-02-18T02:26:53.281Z,12.8
2023-02-18T02:31:53.286Z,12.8
2023-02-18T02:36:53.250Z,12.7
2023-02-18T02:41:53.509Z,12.7
2023-02-18T02:46:53.282Z,12.6
2023-02-18T02:51:53.289Z,12.6
2023-02-18T02:56:53.255Z,12.6
2023-02-18T03:01:53.332Z,12.6
2023-02-18T03:06:53.309Z,12.6
2023-02-18T03:11:53.298Z,12.5
2023-02-18T03:16:53.514Z,12.5
2023-02-18T03:21:53.311Z,12.5
2023-02-18T03:26:53.318Z,12.5
2023-02-18T03:31:53.453Z,12.5
2023-02-18T03:36:53.283Z,12.5
2023-02-18T03:41:53.327Z,12.4
2023-02-18T03:46:53.333Z,12.4
2023-02-18T03:51:53.304Z,12.4
2023-02-18T03:56:53.293Z,12.4
2023-02-18T04:01:53.339Z,12.4
2023-02-18T04:06:53.336Z,12.4
2023-02-18T04:11:53.315Z,12.4
2023-02-18T04:16:53.563Z,12.4
2023-02-18T04:21:53.382Z,12.4
2023-02-18T04:26:53.374Z,12.4
2023-02-18T04:31:53.350Z,12.4
2023-02-18T04:36:53.302Z,12.4
2023-02-18T04:41:53.353Z,12.4
2023-02-18T04:46:53.348Z,12.4
2023-02-18T04:51:53.420Z,12.4
2023-02-18T04:56:53.345Z,12.5
2023-02-18T05:01:53.347Z,12.5
2023-02-18T05:06:53.394Z,12.6
2023-02-18T05:11:53.478Z,12.6
2023-02-18T05:16:53.564Z,12.6
2023-02-18T05:21:53.373Z,12.6
2023-02-18T05:26:53.401Z,12.6
2023-02-18T05:31:53.497Z,12.6
2023-02-18T05:36:53.419Z,12.6
2023-02-18T05:41:53.364Z,12.6
2023-02-18T05:46:53.402Z,12.7
2023-02-18T05:51:53.369Z,12.8
2023-02-18T05:56:53.362Z,12.8
2023-02-18T06:01:53.391Z,12.8
2023-02-18T06:06:53.390Z,12.9
2023-02-18T06:11:53.424Z,12.9
2023-02-18T06:16:53.545Z,13
2023-02-18T06:21:53.372Z,13
2023-02-18T06:26:53.469Z,13.1
2023-02-18T06:31:53.461Z,13.2
2023-02-18T06:36:53.368Z,13.2
2023-02-18T06:41:53.403Z,13.3
2023-02-18T06:46:53.432Z,13.3
2023-02-18T06:51:53.393Z,13.4
2023-02-18T06:56:53.373Z,13.4
2023-02-18T07:01:53.399Z,13.5
2023-02-18T07:06:53.441Z,13.6
2023-02-18T07:11:53.398Z,13.6
2023-02-18T07:16:53.564Z,13.6
2023-02-18T07:21:53.473Z,13.7
2023-02-18T07:26:53.481Z,13.7
2023-02-18T07:31:53.542Z,13.7
2023-02-18T07:36:53.457Z,13.8
2023-02-18T07:41:53.401Z,13.8
2023-02-18T07:46:53.514Z,13.8
2023-02-18T07:51:53.557Z,13.8
2023-02-18T07:56:53.408Z,13.9
2023-02-18T08:01:53.442Z,14
2023-02-18T08:06:53.422Z,14.1
2023-02-18T08:11:53.417Z,14.2
2023-02-18T08:16:53.546Z,14.3
2023-02-18T08:21:53.462Z,14.3
2023-02-18T08:27:00.117Z,14.3
2023-02-18T08:31:53.560Z,14.3
2023-02-18T08:36:53.412Z,14.3
2023-02-18T08:41:53.441Z,14.3
2023-02-18T08:46:53.521Z,14.3
2023-02-18T08:51:53.489Z,14.3
2023-02-18T08:56:53.464Z,14.3
2023-02-18T09:01:53.515Z,14.3
2023-02-18T09:06:53.492Z,14.3
2023-02-18T09:11:53.459Z,14.3
2023-02-18T09:16:53.630Z,14.3
2023-02-18T09:21:53.456Z,14.4
2023-02-18T09:26:53.500Z,14.4
2023-02-18T09:31:53.550Z,14.6
2023-02-18T09:36:53.449Z,14.6
2023-02-18T09:41:53.495Z,14.7
2023-02-18T09:46:53.471Z,14.8
2023-02-18T09:51:53.593Z,14.9
2023-02-18T09:56:53.484Z,15.1
2023-02-18T10:01:53.588Z,15.2
2023-02-18T10:06:53.477Z,15.3
2023-02-18T10:11:53.500Z,15.3
2023-02-18T10:16:53.786Z,15.3
2023-02-18T10:21:53.527Z,15.4
2023-02-18T10:26:53.613Z,15.6
2023-02-18T10:31:53.631Z,15.6
2023-02-18T10:36:53.489Z,15.7
2023-02-18T10:41:53.566Z,15.8
2023-02-18T10:46:53.652Z,15.9
2023-02-18T10:51:53.498Z,15.9
2023-02-18T10:56:53.510Z,16
2023-02-18T11:01:53.649Z,16
2023-02-18T11:06:53.609Z,15.9
2023-02-18T11:12:01.519Z,15.9
2023-02-18T11:16:53.695Z,15.9
2023-02-18T11:21:53.592Z,15.9
2023-02-18T11:26:53.521Z,15.9
2023-02-18T11:31:53.579Z,16
2023-02-18T11:36:53.507Z,16.1
2023-02-18T11:41:53.552Z,16.1
2023-02-18T11:46:53.560Z,16.1
2023-02-18T11:51:53.526Z,16.2
2023-02-18T11:56:53.917Z,16.2
2023-02-18T12:01:53.601Z,16.3
2023-02-18T12:06:53.627Z,16.3
2023-02-18T12:11:53.593Z,16.3
2023-02-18T12:16:53.687Z,16.3
2023-02-18T12:21:53.724Z,16.3
2023-02-18T12:26:53.631Z,16.4
2023-02-18T12:31:53.734Z,16.4
2023-02-18T12:36:53.589Z,16.4
2023-02-18T12:41:53.608Z,16.4
2023-02-18T12:46:53.747Z,16.4
2023-02-18T12:51:53.614Z,16.5
2023-02-18T12:56:53.662Z,16.5
2023-02-18T13:01:53.656Z,16.5
2023-02-18T13:06:53.640Z,16.4
2023-02-18T13:11:53.626Z,16.4
2023-02-18T13:16:53.711Z,16.4
2023-02-18T13:21:53.677Z,16.4
2023-02-18T13:26:53.630Z,16.4
2023-02-18T13:31:53.792Z,16.4
2023-02-18T13:36:53.669Z,16.4
2023-02-18T13:41:53.630Z,16.4
2023-02-18T13:46:53.650Z,16.5
2023-02-18T13:51:53.596Z,16.6
2023-02-18T13:56:53.623Z,16.6
2023-02-18T14:01:53.770Z,16.6
2023-02-18T14:06:53.725Z,16.6
2023-02-18T14:11:53.723Z,16.6
2023-02-18T14:16:53.697Z,16.6
2023-02-18T14:21:53.717Z,16.6
2023-02-18T14:26:53.736Z,16.6
2023-02-18T14:31:53.978Z,16.6
2023-02-18T14:36:53.708Z,16.6
2023-02-18T14:41:55.798Z,16.6
2023-02-18T14:46:53.815Z,16.6
2023-02-18T14:51:53.986Z,16.6
2023-02-18T14:56:53.938Z,16.7
2023-02-18T15:01:54.132Z,16.7
2023-02-18T15:06:53.963Z,16.6
2023-02-18T15:11:53.983Z,16.6
2023-02-18T15:16:53.998Z,16.6
2023-02-18T15:21:54.111Z,16.7
2023-02-18T15:26:54.131Z,16.8
2023-02-18T15:31:54.435Z,16.9
2023-02-18T15:36:54.091Z,16.9
2023-02-18T15:41:54.144Z,17.1
2023-02-18T15:46:54.187Z,17.2
2023-02-18T15:51:54.322Z,17.3
2023-02-18T15:56:54.269Z,17.4
2023-02-18T16:01:54.286Z,17.5
2023-02-18T16:06:54.386Z,17.6
2023-02-18T16:11:54.372Z,17.6
2023-02-18T16:16:54.322Z,17.7
2023-02-18T16:21:54.600Z,17.8
2023-02-18T16:26:54.504Z,17.8
2023-02-18T16:31:54.633Z,17.9
2023-02-18T16:36:54.767Z,17.9
2023-02-18T16:41:54.765Z,17.9
2023-02-18T16:46:54.685Z,17.9
2023-02-18T16:51:54.645Z,17.9
2023-02-18T16:56:54.645Z,17.9
2023-02-18T17:01:54.658Z,17.9
2023-02-18T17:06:54.620Z,17.9
2023-02-18T17:11:54.594Z,17.9
2023-02-18T17:16:54.776Z,17.8
2023-02-18T17:21:54.851Z,17.8
2023-02-18T17:26:54.931Z,17.8
2023-02-18T17:31:55.107Z,17.8
2023-02-18T17:36:54.665Z,17.8
2023-02-18T17:41:54.971Z,17.8
2023-02-18T17:46:54.847Z,17.8
2023-02-18T17:51:57.260Z,17.9
2023-02-18T17:56:55.106Z,17.9
2023-02-18T18:01:55.169Z,17.9
2023-02-18T18:06:55.153Z,17.9
2023-02-18T18:11:55.127Z,17.9
2023-02-18T18:16:55.154Z,17.9
2023-02-18T18:21:55.118Z,17.8
2023-02-18T18:26:55.038Z,17.8
2023-02-18T18:31:55.145Z,17.8
2023-02-18T18:36:55.065Z,17.8
2023-02-18T18:41:55.065Z,17.8
2023-02-18T18:46:55.133Z,17.7
2023-02-18T18:51:56.906Z,17.6
2023-02-18T18:56:55.338Z,17.6
2023-02-18T19:01:55.278Z,17.6
2023-02-18T19:06:55.410Z,17.6
2023-02-18T19:11:55.273Z,17.5
2023-02-18T19:16:55.280Z,17.5
2023-02-18T19:21:55.254Z,17.5
2023-02-18T19:26:55.308Z,17.5
2023-02-18T19:31:55.333Z,17.5
2023-02-18T19:36:55.298Z,17.5
2023-02-18T19:41:55.260Z,17.3
2023-02-18T19:46:55.299Z,17.3
2023-02-18T19:51:55.267Z,17.3
2023-02-18T19:56:55.264Z,17.3
2023-02-18T20:01:55.352Z,17.3
2023-02-18T20:06:55.296Z,17.2
2023-02-18T20:11:55.269Z,17.2
2023-02-18T20:16:55.292Z,17.1
2023-02-18T20:21:55.354Z,17.1
2023-02-18T20:26:55.307Z,17.1
2023-02-18T20:31:55.348Z,17.1
2023-02-18T20:36:55.289Z,17
2023-02-18T20:41:55.393Z,17
2023-02-18T20:46:55.301Z,17
2023-02-18T20:51:55.286Z,16.9
2023-02-18T20:56:55.287Z,16.9
2023-02-18T21:01:55.378Z,16.9
2023-02-18T21:06:55.363Z,17
2023-02-18T21:11:55.478Z,17.1
2023-02-18T21:16:55.316Z,17.1
2023-02-18T21:21:55.290Z,17.1
2023-02-18T21:26:55.309Z,17.1
2023-02-18T21:31:55.905Z,17.1
2023-02-18T21:36:55.599Z,17.1
2023-02-18T21:41:55.782Z,17.2
2023-02-18T21:46:55.640Z,17.2
2023-02-18T21:51:55.626Z,17.2
2023-02-18T21:56:55.624Z,17.2
2023-02-18T22:01:55.754Z,17.2
2023-02-18T22:06:55.803Z,17.3
2023-02-18T22:11:55.700Z,17.2
2023-02-18T22:16:55.748Z,17.3
2023-02-18T22:21:55.890Z,17.2
2023-02-18T22:26:55.641Z,17.2
2023-02-18T22:31:55.969Z,17.1
2023-02-18T22:36:56.072Z,17.1
2023-02-18T22:41:55.672Z,17.1
2023-02-18T22:46:55.664Z,17.1
2023-02-18T22:51:55.626Z,17.1
2023-02-18T22:56:55.667Z,17.1
2023-02-18T23:01:55.647Z,17
2023-02-18T23:06:56.921Z,17.1
2023-02-18T23:11:55.637Z,17.1
2023-02-18T23:16:56.027Z,17
2023-02-18T23:21:55.812Z,16.9
2023-02-18T23:26:56.033Z,16.9
2023-02-18T23:31:55.904Z,16.8
2023-02-18T23:36:55.839Z,16.8
2023-02-18T23:41:55.835Z,16.8
2023-02-18T23:46:55.955Z,16.7
2023-02-18T23:51:55.842Z,16.6
2023-02-18T23:56:55.848Z,16.5
